Time;durP1;ratioP1;P1;durP2;ratioP2;P2;SDS_P1;SDS_P2;PMS_P1;PMS_P2;Temp;Humidity;BMP_temperature;BMP_pressure;BME280_temperature;BME280_humidity;BME280_pressure;Samples;Min_cycle;Max_cycle;Signal;HPM_P1;HPM_P2
2022/09/22 00:01:55;;;;;;;3.05;1.60;;;5.40;99.90;;;;;;5073630;28;20067;-22
2022/09/22 00:04:21;;;;;;;1.65;1.48;;;5.30;99.90;;;;;;5055554;28;20071;-22
2022/09/22 00:06:50;;;;;;;1.98;1.58;;;5.30;99.90;;;;;;5072873;28;20045;-22
2022/09/22 00:09:19;;;;;;;3.88;2.10;;;5.20;99.90;;;;;;5055930;28;20501;-22
2022/09/22 00:11:50;;;;;;;18.05;2.83;;;5.10;99.90;;;;;;5071930;28;20398;-22
2022/09/22 00:14:25;;;;;;;29.90;2.95;;;5.10;99.90;;;;;;5073708;28;20063;-22
2022/09/22 00:16:56;;;;;;;17.92;3.40;;;5.10;99.90;;;;;;5077698;28;20049;-22
2022/09/22 00:19:25;;;;;;;16.90;3.92;;;5.10;99.90;;;;;;5077623;28;20106;-22
2022/09/22 00:21:52;;;;;;;6.80;2.90;;;5.10;99.90;;;;;;5076940;28;20044;-22
2022/09/22 00:24:21;;;;;;;7.25;3.30;;;5.10;99.90;;;;;;5077021;28;20127;-22
2022/09/22 00:26:47;;;;;;;6.88;3.83;;;5.20;99.90;;;;;;5076845;28;20376;-22
2022/09/22 00:29:15;;;;;;;4.13;3.22;;;5.10;99.90;;;;;;5077100;28;20124;-22
2022/09/22 00:31:43;;;;;;;7.38;4.65;;;5.10;99.90;;;;;;5075416;28;20491;-22
2022/09/22 00:34:14;;;;;;;5.47;3.97;;;5.20;99.90;;;;;;5076646;28;20506;-22
2022/09/22 00:36:40;;;;;;;4.60;3.55;;;5.00;99.90;;;;;;5076620;28;20067;-22
2022/09/22 00:39:06;;;;;;;7.75;3.95;;;5.00;99.90;;;;;;5076920;28;20053;-22
2022/09/22 00:41:37;;;;;;;19.10;6.55;;;5.20;99.90;;;;;;5076561;28;20483;-22
2022/09/22 00:44:29;;;;;;;6.80;4.97;;;5.00;99.90;;;;;;5076496;28;20116;-22
2022/09/22 00:47:02;;;;;;;20.33;9.17;;;5.20;99.90;;;;;;5076904;28;20465;-22
2022/09/22 00:50:06;;;;;;;15.18;10.52;;;5.20;99.90;;;;;;5076359;28;20494;-22
2022/09/22 00:52:36;;;;;;;16.23;9.02;;;5.40;99.90;;;;;;5076280;28;20047;-22
2022/09/22 00:55:07;;;;;;;16.15;9.23;;;5.40;99.90;;;;;;5076350;28;20151;-22
2022/09/22 00:57:35;;;;;;;36.22;13.07;;;5.60;99.90;;;;;;5076414;28;20046;-22
2022/09/22 01:00:03;;;;;;;19.27;12.25;;;5.60;99.90;;;;;;5076278;28;20044;-22
2022/09/22 01:02:29;;;;;;;30.73;13.40;;;5.70;99.90;;;;;;5075499;28;20049;-22
2022/09/22 01:04:56;;;;;;;18.02;12.38;;;5.80;99.90;;;;;;5077047;28;20390;-22
2022/09/22 01:07:26;;;;;;;26.30;14.45;;;5.90;99.90;;;;;;5076218;28;20105;-22
2022/09/22 01:09:54;;;;;;;19.92;13.48;;;6.00;99.90;;;;;;5076439;28;20512;-22
2022/09/22 01:12:22;;;;;;;23.45;13.73;;;6.00;99.90;;;;;;5076029;28;20040;-22
2022/09/22 01:15:17;;;;;;;19.77;13.32;;;6.00;99.90;;;;;;5076017;28;20054;-22
2022/09/22 01:18:18;;;;;;;15.70;11.68;;;6.00;99.90;;;;;;5076342;28;20044;-23
2022/09/22 01:21:18;;;;;;;12.45;10.88;;;6.00;99.90;;;;;;5030555;28;20495;-23
2022/09/22 01:23:52;;;;;;;15.65;11.65;;;6.00;99.90;;;;;;5075332;28;20091;-22
2022/09/22 01:26:52;;;;;;;17.75;13.48;;;5.90;99.90;;;;;;5076065;28;20131;-22
2022/09/22 01:29:41;;;;;;;11.98;9.27;;;5.70;99.90;;;;;;5066709;28;20585;-22
2022/09/22 01:32:30;;;;;;;13.80;10.75;;;5.70;99.90;;;;;;5065341;28;20060;-22
2022/09/22 01:35:10;;;;;;;10.55;8.38;;;5.70;99.90;;;;;;5075226;28;20431;-22
2022/09/22 01:37:49;;;;;;;10.70;8.88;;;5.70;99.90;;;;;;5076454;28;20045;-23
2022/09/22 01:40:23;;;;;;;7.70;6.90;;;5.70;99.90;;;;;;5076391;28;20055;-23
2022/09/22 01:43:00;;;;;;;12.85;9.25;;;5.60;99.90;;;;;;5076110;28;20037;-22
2022/09/22 01:45:29;;;;;;;10.63;9.38;;;5.50;99.90;;;;;;5075476;28;20056;-22
2022/09/22 01:48:09;;;;;;;13.85;9.10;;;5.50;99.90;;;;;;5075367;28;20044;-22
2022/09/22 01:51:13;;;;;;;16.92;11.45;;;5.60;99.90;;;;;;5075413;28;20055;-22
2022/09/22 01:53:44;;;;;;;15.98;10.90;;;5.60;99.90;;;;;;5074253;28;20364;-22
2022/09/22 01:56:14;;;;;;;19.23;13.00;;;5.70;99.90;;;;;;5075275;28;20052;-22
2022/09/22 01:58:46;;;;;;;17.38;13.65;;;5.70;99.90;;;;;;5075194;28;20471;-22
2022/09/22 02:01:16;;;;;;;15.77;11.60;;;5.70;99.90;;;;;;5074468;28;20044;-22
2022/09/22 02:04:19;;;;;;;19.23;13.70;;;5.60;99.90;;;;;;5075326;28;20072;-22
2022/09/22 02:07:06;;;;;;;16.95;12.02;;;5.60;99.90;;;;;;5075333;28;20552;-22
2022/09/22 02:09:34;;;;;;;20.60;14.18;;;5.70;99.90;;;;;;5074987;28;20091;-21
2022/09/22 02:12:02;;;;;;;23.40;14.50;;;5.70;99.90;;;;;;5075334;28;20040;-22
2022/09/22 02:14:28;;;;;;;24.58;16.17;;;5.80;99.90;;;;;;5075408;28;20052;-22
2022/09/22 02:16:55;;;;;;;19.38;13.70;;;5.80;99.90;;;;;;5075321;28;20044;-22
2022/09/22 02:19:28;;;;;;;21.77;15.68;;;5.80;99.90;;;;;;5073799;28;20143;-22
2022/09/22 02:21:54;;;;;;;19.43;14.93;;;5.80;99.90;;;;;;5073770;28;20048;-22
2022/09/22 02:24:40;;;;;;;18.60;14.05;;;5.80;99.90;;;;;;5074635;28;20055;-22
2022/09/22 02:27:19;;;;;;;19.40;14.32;;;5.70;99.90;;;;;;5074616;28;20087;-21
2022/09/22 02:29:56;;;;;;;19.98;13.25;;;5.70;99.90;;;;;;5074543;28;20150;-22
2022/09/22 02:32:22;;;;;;;19.80;13.25;;;5.80;99.90;;;;;;5074520;28;20075;-21
2022/09/22 02:34:48;;;;;;;17.42;11.57;;;5.90;99.90;;;;;;5074472;28;20055;-22
2022/09/22 02:37:20;;;;;;;18.88;12.23;;;5.80;99.90;;;;;;5056908;28;20052;-22
2022/09/22 02:40:17;;;;;;;16.35;10.98;;;5.80;99.90;;;;;;5075213;28;20048;-22
2022/09/22 02:42:52;;;;;;;16.95;11.13;;;5.70;99.90;;;;;;5075739;28;20106;-22
2022/09/22 02:45:29;;;;;;;24.05;13.60;;;5.80;99.90;;;;;;5074292;28;20135;-21
2022/09/22 02:48:06;;;;;;;20.25;12.50;;;5.80;99.90;;;;;;5073064;28;20037;-22
2022/09/22 02:50:33;;;;;;;16.50;12.55;;;5.70;99.90;;;;;;5074142;28;20051;-22
2022/09/22 02:53:08;;;;;;;15.38;12.00;;;5.80;99.90;;;;;;5074072;28;20052;-22
2022/09/22 02:55:34;;;;;;;27.48;16.33;;;5.70;99.90;;;;;;5074401;28;20056;-22
2022/09/22 02:58:00;;;;;;;15.27;10.88;;;5.70;99.90;;;;;;5074137;28;20367;-22
2022/09/22 03:00:26;;;;;;;16.92;10.57;;;5.70;99.90;;;;;;5074030;28;20452;-22
2022/09/22 03:02:52;;;;;;;16.13;10.90;;;5.50;99.90;;;;;;5073010;28;20090;-22
2022/09/22 03:05:17;;;;;;;12.30;9.63;;;5.50;99.90;;;;;;5073039;28;20089;-22
2022/09/22 03:07:43;;;;;;;12.05;9.30;;;5.50;99.90;;;;;;5073530;28;20502;-22
2022/09/22 03:10:10;;;;;;;14.45;9.43;;;5.50;99.90;;;;;;5073896;28;20131;-22
2022/09/22 03:12:41;;;;;;;16.02;10.27;;;5.30;99.90;;;;;;5073387;28;20363;-22
2022/09/22 03:15:08;;;;;;;14.68;8.73;;;5.30;99.90;;;;;;5072752;28;20044;-22
2022/09/22 03:17:34;;;;;;;9.63;7.60;;;5.30;99.90;;;;;;5072700;28;20504;-22
2022/09/22 03:20:00;;;;;;;10.05;7.13;;;5.10;99.90;;;;;;5055979;28;20137;-22
2022/09/22 03:22:26;;;;;;;6.30;4.97;;;5.10;99.90;;;;;;5055845;28;20379;-22
2022/09/22 03:24:51;;;;;;;8.75;5.38;;;5.00;99.90;;;;;;5072754;28;20098;-22
2022/09/22 03:27:17;;;;;;;9.77;6.53;;;5.00;99.90;;;;;;5073723;28;20051;-22
2022/09/22 03:29:43;;;;;;;10.38;7.55;;;5.00;99.90;;;;;;5072196;28;20135;-22
2022/09/22 03:32:08;;;;;;;10.88;8.07;;;5.10;99.90;;;;;;5073319;28;20052;-22
2022/09/22 03:34:34;;;;;;;10.17;6.93;;;5.00;99.90;;;;;;5073599;28;20092;-22
2022/09/22 03:37:00;;;;;;;9.90;7.57;;;4.90;99.90;;;;;;5073426;28;20044;-23
2022/09/22 03:39:25;;;;;;;11.00;7.85;;;4.90;99.90;;;;;;5073607;28;20044;-22
2022/09/22 03:41:51;;;;;;;12.52;8.75;;;4.90;99.90;;;;;;5055730;28;20466;-22
2022/09/22 03:44:17;;;;;;;10.77;7.70;;;5.00;99.90;;;;;;5073559;28;20044;-22
2022/09/22 03:46:43;;;;;;;10.57;8.80;;;5.00;99.90;;;;;;5073518;28;20048;-22
2022/09/22 03:49:09;;;;;;;11.50;7.93;;;5.00;99.90;;;;;;5074406;28;20048;-22
2022/09/22 03:51:35;;;;;;;11.07;7.18;;;5.00;99.90;;;;;;5078158;28;20045;-22
2022/09/22 03:54:01;;;;;;;13.95;8.85;;;4.90;99.90;;;;;;5078007;28;20048;-22
2022/09/22 03:56:27;;;;;;;11.07;7.63;;;4.90;99.90;;;;;;5076345;28;20045;-22
2022/09/22 03:58:53;;;;;;;10.73;7.90;;;5.00;99.90;;;;;;5076257;28;20405;-22
2022/09/22 04:01:19;;;;;;;10.80;7.32;;;5.00;99.90;;;;;;5077416;28;20059;-22
2022/09/22 04:03:45;;;;;;;14.27;7.57;;;5.00;99.90;;;;;;5078218;28;20037;-22
2022/09/22 04:06:11;;;;;;;12.13;8.20;;;4.90;99.90;;;;;;5076176;28;20052;-22
2022/09/22 04:08:37;;;;;;;16.20;9.55;;;4.80;99.90;;;;;;5076336;28;20056;-21
2022/09/22 04:11:04;;;;;;;14.48;8.55;;;4.90;99.90;;;;;;5076079;28;20045;-22
2022/09/22 04:13:30;;;;;;;12.88;7.97;;;4.90;99.90;;;;;;5077093;28;20102;-22
2022/09/22 04:15:55;;;;;;;13.07;9.55;;;4.90;99.90;;;;;;5075979;28;20048;-22
2022/09/22 04:18:21;;;;;;;10.85;7.63;;;4.80;99.90;;;;;;5077096;28;20090;-22
2022/09/22 04:20:47;;;;;;;12.30;8.90;;;4.90;99.90;;;;;;5077029;28;20052;-22
2022/09/22 04:23:14;;;;;;;16.02;9.40;;;5.00;99.90;;;;;;5075994;28;20080;-22
2022/09/22 04:25:40;;;;;;;17.20;11.50;;;5.10;99.90;;;;;;5059846;28;20048;-22
2022/09/22 04:28:06;;;;;;;11.30;8.68;;;4.90;99.90;;;;;;5075681;28;20375;-22
2022/09/22 04:30:33;;;;;;;11.15;7.40;;;5.00;99.90;;;;;;5076684;28;20432;-22
2022/09/22 04:32:59;;;;;;;12.35;8.52;;;4.90;99.90;;;;;;5076303;28;20414;-22
2022/09/22 04:35:27;;;;;;;14.02;8.77;;;4.90;99.90;;;;;;5059239;28;20052;-22
2022/09/22 04:37:54;;;;;;;16.33;9.25;;;4.90;99.90;;;;;;5077004;28;20045;-22
2022/09/22 04:40:21;;;;;;;17.13;10.93;;;5.00;99.90;;;;;;5075939;28;20055;-22
2022/09/22 04:42:46;;;;;;;14.48;9.88;;;4.90;99.90;;;;;;5076585;28;20066;-22
2022/09/22 04:45:13;;;;;;;16.10;11.95;;;5.00;99.90;;;;;;5076578;28;20131;-22
2022/09/22 04:47:40;;;;;;;18.98;11.80;;;5.20;99.90;;;;;;5076566;28;20110;-22
2022/09/22 04:50:06;;;;;;;20.88;12.30;;;5.20;99.90;;;;;;5076405;28;20044;-22
2022/09/22 04:52:31;;;;;;;16.30;11.48;;;5.30;99.90;;;;;;5076349;28;20051;-22
2022/09/22 04:54:57;;;;;;;21.10;12.60;;;5.40;99.90;;;;;;5076422;28;20065;-22
2022/09/22 04:57:23;;;;;;;18.23;11.00;;;5.50;99.90;;;;;;5075223;28;20109;-22
2022/09/22 04:59:49;;;;;;;15.98;11.63;;;5.40;99.90;;;;;;5075809;28;20048;-22
2022/09/22 05:02:14;;;;;;;18.27;10.75;;;5.50;99.90;;;;;;5076056;28;20099;-22
2022/09/22 05:04:40;;;;;;;16.42;10.10;;;5.40;99.90;;;;;;5075290;28;20051;-22
2022/09/22 05:07:06;;;;;;;15.70;9.70;;;5.40;99.90;;;;;;5075789;28;20057;-22
2022/09/22 05:09:32;;;;;;;20.05;12.65;;;5.30;99.90;;;;;;5075188;28;20053;-22
2022/09/22 05:11:59;;;;;;;18.52;11.48;;;5.30;99.90;;;;;;5076036;28;20052;-23
2022/09/22 05:14:26;;;;;;;15.73;9.90;;;5.20;99.90;;;;;;5076058;28;20088;-22
2022/09/22 05:16:52;;;;;;;20.42;10.13;;;5.30;99.90;;;;;;5075970;28;20040;-23
2022/09/22 05:19:17;;;;;;;15.77;10.75;;;5.10;99.90;;;;;;5074776;28;20048;-22
2022/09/22 05:21:43;;;;;;;16.08;9.55;;;5.10;99.90;;;;;;5075955;28;20571;-22
2022/09/22 05:24:09;;;;;;;14.43;9.75;;;5.10;99.90;;;;;;5075248;28;20480;-23
2022/09/22 05:26:34;;;;;;;18.33;11.38;;;5.10;99.90;;;;;;5075845;28;20044;-22
2022/09/22 05:29:00;;;;;;;24.00;14.00;;;5.20;99.90;;;;;;5074633;28;20493;-23
2022/09/22 05:31:26;;;;;;;21.60;11.82;;;5.30;99.90;;;;;;5074406;28;20390;-23
2022/09/22 05:33:51;;;;;;;21.90;11.75;;;5.30;99.90;;;;;;5057595;28;20049;-23
2022/09/22 05:36:17;;;;;;;16.25;11.07;;;5.20;99.90;;;;;;5075086;28;20052;-23
2022/09/22 05:38:43;;;;;;;16.05;10.05;;;5.20;99.90;;;;;;5075634;28;20044;-23
2022/09/22 05:41:09;;;;;;;18.67;10.38;;;5.20;99.90;;;;;;5075555;28;20049;-23
2022/09/22 05:43:34;;;;;;;21.67;12.02;;;5.20;99.90;;;;;;5076071;28;20041;-23
2022/09/22 05:46:00;;;;;;;21.60;11.63;;;5.30;99.90;;;;;;5057836;28;20455;-23
2022/09/22 05:48:25;;;;;;;23.58;11.68;;;5.20;99.90;;;;;;5075972;28;20045;-23
2022/09/22 05:50:51;;;;;;;18.98;11.35;;;5.30;99.90;;;;;;5075275;28;20406;-23
2022/09/22 05:53:17;;;;;;;19.67;11.65;;;5.40;99.90;;;;;;5074067;28;20055;-23
2022/09/22 05:55:42;;;;;;;16.63;11.75;;;5.50;99.90;;;;;;5076105;28;20051;-24
2022/09/22 05:58:12;;;;;;;20.20;13.15;;;5.40;99.90;;;;;;5074878;28;20080;-24
2022/09/22 06:00:39;;;;;;;24.73;14.57;;;5.60;99.90;;;;;;5074833;28;20076;-23
2022/09/22 06:03:05;;;;;;;26.15;12.95;;;5.70;99.90;;;;;;5073944;28;20395;-24
2022/09/22 06:05:31;;;;;;;24.48;13.35;;;5.80;99.90;;;;;;5075598;28;20080;-24
2022/09/22 06:08:05;;;;;;;21.88;13.35;;;5.70;99.90;;;;;;5074027;28;20040;-24
2022/09/22 06:10:31;;;;;;;;;;;5.90;99.90;;;;;;5075124;28;20560;-24
2022/09/22 06:13:01;;;;;;;27.02;13.10;;;5.80;99.90;;;;;;5073871;28;19920;-24
2022/09/22 06:15:28;;;;;;;23.85;13.55;;;6.00;99.90;;;;;;5074858;28;20051;-24
2022/09/22 06:17:55;;;;;;;20.75;13.77;;;5.90;99.90;;;;;;5056938;28;20460;-24
2022/09/22 06:20:21;;;;;;;21.67;14.30;;;6.00;99.90;;;;;;5074135;28;20044;-25
2022/09/22 06:22:47;;;;;;;24.70;16.02;;;6.00;99.90;;;;;;5074356;28;20041;-24
2022/09/22 06:25:14;;;;;;;23.33;15.02;;;6.20;99.90;;;;;;5057079;28;20060;-24
2022/09/22 06:27:39;;;;;;;21.77;13.45;;;6.20;99.90;;;;;;5073907;28;20136;-24
2022/09/22 06:30:09;;;;;;;21.67;14.48;;;6.20;99.90;;;;;;5074158;28;20127;-24
2022/09/22 06:32:38;;;;;;;18.70;13.32;;;6.40;99.90;;;;;;5057332;28;20082;-24
2022/09/22 06:35:06;;;;;;;20.48;13.10;;;6.30;99.90;;;;;;5074473;28;20091;-24
2022/09/22 06:37:32;;;;;;;22.58;13.88;;;6.40;99.90;;;;;;5074007;28;20426;-25
2022/09/22 06:39:58;;;;;;;19.50;13.95;;;6.50;99.90;;;;;;5074125;28;20436;-25
2022/09/22 06:42:23;;;;;;;20.10;13.77;;;6.50;99.90;;;;;;5073420;28;20058;-25
2022/09/22 06:44:49;;;;;;;18.80;12.55;;;6.50;99.90;;;;;;5074328;28;20048;-24
2022/09/22 06:47:15;;;;;;;19.13;12.70;;;6.50;99.90;;;;;;5074319;28;20080;-25
2022/09/22 06:49:41;;;;;;;19.90;13.02;;;6.60;99.90;;;;;;5074144;28;20047;-25
2022/09/22 06:52:11;;;;;;;21.70;13.90;;;6.90;99.90;;;;;;5056483;28;20503;-24
2022/09/22 06:54:39;;;;;;;15.45;11.77;;;6.90;99.90;;;;;;5074713;28;20109;-25
2022/09/22 06:57:05;;;;;;;18.95;12.73;;;7.00;99.90;;;;;;5074156;28;20059;-25
2022/09/22 06:59:32;;;;;;;21.83;11.80;;;6.90;99.90;;;;;;5074135;28;20045;-26
2022/09/22 07:01:57;;;;;;;18.67;14.55;;;7.10;99.90;;;;;;5074040;28;20048;-26
2022/09/22 07:04:23;;;;;;;19.80;14.85;;;7.30;99.90;;;;;;5074033;28;20048;-26
2022/09/22 07:06:49;;;;;;;17.40;12.68;;;7.40;99.90;;;;;;5056061;28;20123;-26
2022/09/22 07:09:15;;;;;;;15.15;12.10;;;7.30;99.90;;;;;;5073957;28;20124;-26
2022/09/22 07:11:41;;;;;;;15.68;12.32;;;7.60;99.90;;;;;;5073887;28;20098;-26
2022/09/22 07:14:07;;;;;;;15.55;12.85;;;7.70;99.90;;;;;;5072897;28;20040;-26
2022/09/22 07:16:34;;;;;;;17.88;13.10;;;7.90;99.90;;;;;;5073864;28;20044;-26
2022/09/22 07:18:59;;;;;;;17.50;13.98;;;8.00;99.90;;;;;;5073121;28;20045;-27
2022/09/22 07:21:33;;;;;;;17.60;12.82;;;8.00;99.90;;;;;;5073774;28;20040;-26
2022/09/22 07:23:59;;;;;;;19.58;13.90;;;8.20;99.90;;;;;;5072307;28;20041;-27
2022/09/22 07:26:31;;;;;;;19.85;12.70;;;8.40;99.90;;;;;;5072769;28;20052;-26
2022/09/22 07:28:59;;;;;;;18.77;13.48;;;8.30;99.90;;;;;;5073147;28;20050;-26
2022/09/22 07:31:29;;;;;;;17.02;11.80;;;8.50;99.90;;;;;;5073972;28;20417;-27
2022/09/22 07:33:59;;;;;;;15.90;11.68;;;8.70;99.90;;;;;;5073330;28;20173;-27
2022/09/22 07:36:26;;;;;;;16.08;10.88;;;8.90;99.90;;;;;;5074167;28;20433;-26
2022/09/22 07:38:54;;;;;;;14.30;10.15;;;8.80;99.90;;;;;;5073572;28;20047;-26
2022/09/22 07:41:22;;;;;;;14.40;9.90;;;9.00;99.90;;;;;;5073259;28;20478;-27
2022/09/22 07:43:50;;;;;;;13.93;10.45;;;9.30;99.90;;;;;;5074359;28;20040;-27
2022/09/22 07:46:16;;;;;;;14.43;9.00;;;9.30;99.90;;;;;;5072298;28;20052;-27
2022/09/22 07:48:46;;;;;;;10.23;8.45;;;9.30;99.90;;;;;;5073120;28;20053;-27
2022/09/22 07:51:20;;;;;;;12.82;8.68;;;9.60;99.90;;;;;;5072799;28;20048;-27
2022/09/22 07:54:01;;;;;;;11.07;7.97;;;9.80;99.90;;;;;;5074013;28;20094;-27
2022/09/22 07:56:27;;;;;;;13.77;8.00;;;9.90;99.90;;;;;;5055833;28;20487;-27
2022/09/22 07:58:53;;;;;;;11.32;9.38;;;9.90;99.90;;;;;;5073402;28;20044;-27
2022/09/22 08:01:22;;;;;;;10.15;7.68;;;10.10;99.90;;;;;;5073998;28;20048;-27
2022/09/22 08:03:49;;;;;;;15.88;8.07;;;10.30;99.90;;;;;;5073351;28;20045;-27
2022/09/22 08:06:17;;;;;;;8.93;6.25;;;10.40;99.90;;;;;;5073298;28;20048;-27
2022/09/22 08:08:45;;;;;;;12.63;6.75;;;10.50;99.90;;;;;;5073297;28;20049;-27
2022/09/22 08:11:16;;;;;;;10.98;5.45;;;10.80;99.90;;;;;;5073005;28;20044;-27
2022/09/22 08:13:47;;;;;;;8.75;4.82;;;10.90;99.90;;;;;;5072409;28;20049;-27
2022/09/22 08:16:13;;;;;;;11.18;3.92;;;11.20;99.90;;;;;;5055928;28;20044;-27
2022/09/22 08:18:39;;;;;;;8.55;4.85;;;11.30;99.90;;;;;;5072017;28;20055;-27
2022/09/22 08:21:06;;;;;;;9.48;4.20;;;11.50;99.90;;;;;;5073209;28;20048;-26
2022/09/22 08:23:33;;;;;;;7.63;3.88;;;11.70;99.90;;;;;;5072035;28;20051;-27
2022/09/22 08:26:06;;;;;;;8.45;3.67;;;11.80;99.90;;;;;;5071874;28;20048;-27
2022/09/22 08:28:33;;;;;;;6.15;3.40;;;11.90;99.90;;;;;;5073218;28;20136;-27
2022/09/22 08:30:59;;;;;;;5.05;3.10;;;12.10;99.90;;;;;;5073155;28;20048;-26
2022/09/22 08:33:26;;;;;;;8.02;3.70;;;12.30;99.90;;;;;;5072653;28;20056;-27
2022/09/22 08:36:02;;;;;;;3.92;2.75;;;12.40;99.90;;;;;;5074398;28;20044;-26
2022/09/22 08:38:29;;;;;;;8.70;3.25;;;12.50;99.90;;;;;;5076773;28;20048;-27
2022/09/22 08:41:25;;;;;;;6.05;3.05;;;12.70;99.90;;;;;;5076666;28;20540;-27
2022/09/22 08:43:54;;;;;;;7.03;2.30;;;12.90;99.90;;;;;;5076723;28;20041;-27
2022/09/22 08:46:45;;;;;;;4.68;2.13;;;13.00;99.90;;;;;;5077164;28;20117;-28
2022/09/22 08:52:39;;;;;;;7.30;2.55;;;13.30;99.90;;;;;;5076189;28;20466;-26
2022/09/22 08:55:18;;;;;;;5.93;2.50;;;13.50;97.70;;;;;;5077080;28;20055;-26
2022/09/22 08:57:55;;;;;;;4.85;2.42;;;13.70;1.00;;;;;;5076140;28;20417;-26
2022/09/22 09:00:23;;;;;;;7.55;2.50;;;13.80;1.00;;;;;;5076451;28;20052;-26
2022/09/22 09:03:26;;;;;;;6.47;2.05;;;14.00;99.90;;;;;;5076288;28;20041;-27
2022/09/22 09:06:33;;;;;;;5.00;1.67;;;14.10;1.00;;;;;;5076314;28;20127;-27
2022/09/22 09:09:02;;;;;;;4.53;1.50;;;14.60;99.90;;;;;;5076223;28;20044;-27
2022/09/22 09:11:56;;;;;;;2.83;1.50;;;15.90;99.90;;;;;;5076157;28;20048;-27
2022/09/22 09:14:29;;;;;;;4.18;1.40;;;;;;;;;;5076390;28;20047;-27
2022/09/22 09:17:03;;;;;;;5.35;1.90;;;17.80;99.90;;;;;;5075104;28;20494;-27
2022/09/22 09:19:48;;;;;;;9.15;2.15;;;18.00;99.90;;;;;;5076798;28;20052;-27
2022/09/22 09:22:56;;;;;;;3.28;1.40;;;18.30;99.90;;;;;;5074774;28;20132;-27
2022/09/22 09:25:35;;;;;;;6.45;1.80;;;18.50;99.90;;;;;;5053614;28;20062;-27
2022/09/22 09:28:36;;;;;;;9.20;1.45;;;18.90;1.00;;;;;;5071629;28;20141;-27
2022/09/22 09:31:18;;;;;;;6.22;1.60;;;19.10;99.90;;;;;;5057900;28;20049;-27
2022/09/22 09:33:57;;;;;;;3.85;1.20;;;19.30;1.00;;;;;;5075793;28;20402;-27
2022/09/22 09:36:30;;;;;;;3.13;1.20;;;19.10;1.00;;;;;;5075800;28;20053;-26
2022/09/22 09:38:57;;;;;;;3.97;1.20;;;19.30;1.00;;;;;;5076538;28;20093;-26
2022/09/22 09:41:31;;;;;;;7.47;1.52;;;19.30;1.00;;;;;;5075599;28;20052;-26
2022/09/22 09:43:59;;;;;;;5.30;1.40;;;19.40;1.00;;;;;;5075883;28;20063;-26
2022/09/22 09:47:02;;;;;;;5.22;1.40;;;19.40;1.00;;;;;;5075883;28;20056;-26
2022/09/22 09:49:28;;;;;;;2.58;0.80;;;19.50;99.90;;;;;;5074511;28;20131;-26
2022/09/22 09:51:57;;;;;;;5.47;1.27;;;19.50;1.00;;;;;;5076016;28;20106;-26
2022/09/22 09:54:24;;;;;;;5.47;1.45;;;19.70;1.00;;;;;;5075330;28;20040;-26
2022/09/22 09:57:07;;;;;;;2.58;1.00;;;19.80;1.00;;;;;;5057860;28;20057;-26
2022/09/22 10:02:24;;;;;;;4.65;1.15;;;20.10;99.90;;;;;;5075224;28;20052;-26
2022/09/22 10:04:52;;;;;;;3.00;1.08;;;20.30;99.90;;;;;;5075165;28;20044;-26
2022/09/22 10:07:22;;;;;;;8.63;1.70;;;20.60;99.90;;;;;;5075052;28;20123;-25
2022/09/22 10:09:50;;;;;;;3.72;0.98;;;20.90;99.90;;;;;;5074334;28;20135;-26
2022/09/22 10:12:33;;;;;;;4.03;1.48;;;20.80;99.90;;;;;;5075740;28;20067;-26
2022/09/22 10:15:00;;;;;;;2.42;1.00;;;21.00;99.90;;;;;;5074845;28;20135;-25
2022/09/22 10:17:38;;;;;;;4.15;1.83;;;20.80;99.90;;;;;;5074850;28;20139;-25
2022/09/22 10:20:32;;;;;;;3.33;1.20;;;20.70;99.90;;;;;;5073974;28;20052;-26
2022/09/22 10:23:19;;;;;;;3.00;1.05;;;20.70;99.90;;;;;;5074802;28;20045;-25
2022/09/22 10:25:46;;;;;;;3.65;1.08;;;20.70;99.90;;;;;;5073192;28;20048;-24
2022/09/22 10:28:18;;;;;;;5.00;1.40;;;20.50;99.90;;;;;;5057042;28;20047;-25
2022/09/22 10:30:58;;;;;;;4.32;1.45;;;20.40;99.90;;;;;;5075525;28;20211;-24
2022/09/22 10:33:23;;;;;;;5.50;1.20;;;20.40;99.30;;;;;;5074079;28;20051;-24
2022/09/22 10:36:07;;;;;;;5.00;1.13;;;20.60;99.90;;;;;;5074198;28;20040;-24
2022/09/22 10:38:40;;;;;;;3.38;0.95;;;20.50;70.10;;;;;;5074517;28;20102;-24
2022/09/22 10:41:26;;;;;;;5.93;1.20;;;20.50;87.50;;;;;;5073294;28;20044;-24
2022/09/22 10:44:19;;;;;;;2.67;1.17;;;20.80;98.70;;;;;;5073014;28;20483;-25
2022/09/22 10:46:56;;;;;;;;;;;21.00;82.70;;;;;;5074670;28;20438;-28
2022/09/22 10:49:46;;;;;;;5.85;1.38;;;21.10;94.60;;;;;;5072959;28;19920;-26
2022/09/22 10:52:24;;;;;;;4.50;1.83;;;21.50;99.90;;;;;;5075025;28;20382;-26
2022/09/22 10:55:09;;;;;;;5.93;1.52;;;21.40;93.40;;;;;;5074240;28;20052;-25
2022/09/22 10:58:02;;;;;;;7.18;1.63;;;21.30;62.90;;;;;;5073054;28;20048;-25
2022/09/22 11:00:33;;;;;;;5.88;1.88;;;21.00;48.30;;;;;;5074118;28;20080;-25
2022/09/22 11:03:07;;;;;;;7.20;1.85;;;21.30;99.90;;;;;;5074105;28;20047;-26
2022/09/22 11:14:36;;;;;;;4.40;1.15;;;21.80;57.60;;;;;;5065425;28;20057;-25
2022/09/22 11:17:12;;;;;;;4.60;1.50;;;21.80;95.40;;;;;;5073904;28;20044;-25
2022/09/22 11:20:07;;;;;;;5.05;1.58;;;21.80;95.50;;;;;;5073924;28;20048;-25
2022/09/22 11:23:11;;;;;;;5.68;1.90;;;21.80;93.50;;;;;;5064075;28;20060;-26
2022/09/22 11:26:24;;;;;;;4.55;1.73;;;22.20;91.30;;;;;;5073680;28;20056;-25
2022/09/22 11:29:11;;;;;;;6.05;1.50;;;22.70;70.80;;;;;;5051914;28;20094;-25
2022/09/22 11:31:57;;;;;;;4.82;1.23;;;22.20;74.20;;;;;;5071946;28;20088;-25
2022/09/22 11:34:44;;;;;;;4.28;1.92;;;22.20;50.20;;;;;;5055743;28;20049;-25
2022/09/22 11:37:25;;;;;;;6.10;1.92;;;22.00;57.90;;;;;;5073698;28;20048;-26
2022/09/22 11:40:22;;;;;;;3.10;1.20;;;22.30;93.10;;;;;;5073263;28;20141;-26
2022/09/22 11:43:19;;;;;;;5.05;1.40;;;22.60;65.90;;;;;;5073596;28;20502;-26
2022/09/22 11:46:11;;;;;;;4.93;1.67;;;21.80;24.80;;;;;;5073603;28;20052;-26
2022/09/22 11:48:59;;;;;;;4.53;1.58;;;22.00;53.20;;;;;;5073247;28;20056;-25
2022/09/22 11:51:33;;;;;;;4.85;1.55;;;21.60;28.00;;;;;;5074130;28;20052;-25
2022/09/22 11:54:34;;;;;;;5.65;1.83;;;21.10;20.40;;;;;;5073487;28;20053;-25
2022/09/22 11:57:06;;;;;;;7.70;1.95;;;21.10;18.90;;;;;;5073503;28;20041;-25
2022/09/22 11:59:51;;;;;;;5.38;2.03;;;20.80;44.90;;;;;;5072510;28;20107;-24
2022/09/22 12:02:38;;;;;;;7.28;2.78;;;21.00;61.10;;;;;;5073130;28;20449;-25
2022/09/22 12:05:40;;;;;;;5.72;2.30;;;21.60;54.40;;;;;;5073954;28;20081;-25
2022/09/22 12:08:22;;;;;;;5.57;2.80;;;21.70;29.80;;;;;;5072402;28;20066;-25
2022/09/22 12:10:49;;;;;;;5.50;2.50;;;22.20;65.20;;;;;;5076311;28;20040;-25
2022/09/22 12:13:25;;;;;;;4.20;2.50;;;22.10;63.90;;;;;;5075997;28;20047;-25
2022/09/22 12:16:22;;;;;;;5.00;2.20;;;22.30;61.60;;;;;;5076341;28;20041;-25
2022/09/22 12:19:37;;;;;;;7.18;2.88;;;22.10;44.90;;;;;;5076254;28;20486;-25
2022/09/22 12:22:17;;;;;;;4.55;3.10;;;22.40;71.50;;;;;;5054847;28;20040;-26
2022/09/22 12:24:46;;;;;;;4.95;3.40;;;22.00;45.40;;;;;;5077565;28;20057;-26
2022/09/22 12:27:24;;;;;;;9.02;3.80;;;21.70;32.30;;;;;;5076042;28;20048;-25
2022/09/22 12:30:03;;;;;;;5.65;2.80;;;22.20;38.00;;;;;;5075827;28;20049;-25
2022/09/22 12:32:33;;;;;;;5.57;2.67;;;22.80;71.40;;;;;;5076908;28;20148;-25
2022/09/22 12:34:59;;;;;;;4.03;2.33;;;23.10;75.00;;;;;;5076892;28;20048;-26
2022/09/22 12:37:37;;;;;;;10.35;3.78;;;23.00;67.90;;;;;;5077344;28;20041;-25
2022/09/22 12:40:25;;;;;;;7.00;2.70;;;22.80;64.30;;;;;;5076420;28;20444;-25
2022/09/22 12:42:52;;;;;;;5.65;2.72;;;22.60;49.10;;;;;;5077245;28;20056;-25
2022/09/22 12:45:34;;;;;;;6.00;2.33;;;22.30;47.90;;;;;;5075676;28;20048;-25
2022/09/22 12:48:09;;;;;;;5.13;2.38;;;21.90;41.40;;;;;;5077291;28;20040;-24
2022/09/22 12:50:40;;;;;;;7.25;3.08;;;21.80;28.90;;;;;;5075276;28;20052;-25
2022/09/22 12:53:22;;;;;;;6.03;2.55;;;21.40;6.40;;;;;;5076422;28;20083;-24
2022/09/22 12:55:52;;;;;;;5.00;2.20;;;21.10;10.90;;;;;;5077099;28;20110;-25
2022/09/22 12:58:22;;;;;;;8.90;3.15;;;20.90;9.10;;;;;;5076737;28;20101;-24
2022/09/22 13:00:50;;;;;;;7.22;3.65;;;21.00;5.70;;;;;;5075215;28;20192;-25
2022/09/22 13:03:24;;;;;;;8.38;3.05;;;21.50;43.80;;;;;;5058390;28;20493;-25
2022/09/22 13:05:54;;;;;;;6.85;2.92;;;22.30;51.60;;;;;;5076348;28;20040;-25
2022/09/22 13:08:31;;;;;;;7.10;2.90;;;22.80;81.30;;;;;;5076777;28;20049;-25
2022/09/22 13:11:03;;;;;;;5.22;2.55;;;22.80;65.10;;;;;;5076257;28;20127;-25
2022/09/22 13:13:28;;;;;;;8.13;2.30;;;21.90;25.60;;;;;;5076070;28;20051;-25
2022/09/22 13:15:55;;;;;;;7.15;2.58;;;21.20;7.40;;;;;;5076660;28;20048;-25
2022/09/22 13:18:43;;;;;;;6.68;2.65;;;20.90;5.80;;;;;;5076097;28;20124;-25
2022/09/22 13:21:12;;;;;;;7.80;3.28;;;20.70;2.10;;;;;;5075769;28;20044;-24
2022/09/22 13:23:52;;;;;;;7.28;2.85;;;20.10;10.90;;;;;;5076489;28;20044;-24
2022/09/22 13:26:34;;;;;;;4.45;2.08;;;20.00;24.70;;;;;;5074807;28;20045;-24
2022/09/22 13:29:21;;;;;;;6.95;2.88;;;20.50;52.60;;;;;;5076224;28;20394;-24
2022/09/22 13:31:49;;;;;;;6.03;2.03;;;20.90;66.70;;;;;;5075664;28;20047;-25